ES-0039 weather

Aeródromo de Alcazarén
Alcazarén, Castilla y León, Spain

Public forecast

Using degrees Celsius for public forecast. Weather courtesy of forecast.io.

Closest aviation weather report (METAR) to Aeródromo de Alcazarén

Closest report is Valladolid Airport, 21.2 nm (39.3 km) NNW. Retrieved 2019/10/19 18:40 UTC (7 minutes ago):

LEVD 191840Z 21007KT 5000 RA SCT010 BKN025 OVC045 11/11 Q1004

Closest aviation forecast (TAF) to Aeródromo de Alcazarén

Closest forecast is Valladolid Airport, 21.2 nm (39.3 km) NNW. Retrieved 2019/10/19 18:27 UTC (20 minutes ago):

TAF LEVD 191700Z 1918/2018 22010KT 9999 BKN030 TX11/2015Z TN06/2006Z PROB30 TEMPO 1918/1919 22012G25KT TEMPO 1918/1923 4000 RA BKN025 OVC045 PROB30 TEMPO 1918/1921 4000 TS SHRA SCT025CB PROB40 TEMPO 1923/2003 BKN009 TEMPO 2003/2009 31014KT BECMG 2016/2018 24005KT